Matagorda, Texas
Current Conditions -  °F | °C
As of 5:53 AM on Saturday 01 Nov 2014 (Local Time) from KPSX Reporting Station
Clear Clear  
Wind Chill: 44°   Ceiling: Unl
Heat Index: 48°   Visibility: 10mi
Dew Point: 45°   Wind: 8mph
Humidity: 89%   Direction: 20°NNE
Pressure: 30.31"   Gusts: NA
Location:  28.69°N, 95.97°W
Report Text: KPSX 011053Z AUTO 02007KT 10SM CLR 09/07 A3031 RMK AO2 SLP263 T00890072
Loading
Personal Weather Stations






























Interactive Weather Map New forecast layout! Learn more

10-Day Weather Forecast

Advertisements
Track Severe Weather on mobile